sensor_id;sensor_type;location;lat;lon;timestamp;P1;durP1;ratioP1;P2;durP2;ratioP2
21036;SDS011;10677;50.942;4.028;2022-09-09T00:09:28;8.70;;;2.90;;
21036;SDS011;10677;50.942;4.028;2022-09-09T00:14:53;12.43;;;3.10;;
21036;SDS011;10677;50.942;4.028;2022-09-09T00:20:11;8.85;;;3.15;;
21036;SDS011;10677;50.942;4.028;2022-09-09T00:28:58;8.70;;;2.67;;
21036;SDS011;10677;50.942;4.028;2022-09-09T00:31:29;8.18;;;2.63;;
21036;SDS011;10677;50.942;4.028;2022-09-09T00:34:03;9.35;;;2.90;;
21036;SDS011;10677;50.942;4.028;2022-09-09T00:36:42;10.73;;;2.80;;
21036;SDS011;10677;50.942;4.028;2022-09-09T00:39:45;8.48;;;2.92;;
21036;SDS011;10677;50.942;4.028;2022-09-09T00:42:13;8.80;;;2.03;;
21036;SDS011;10677;50.942;4.028;2022-09-09T00:44:49;9.90;;;2.50;;
21036;SDS011;10677;50.942;4.028;2022-09-09T00:47:38;7.32;;;2.47;;
21036;SDS011;10677;50.942;4.028;2022-09-09T00:50:23;10.68;;;2.63;;
21036;SDS011;10677;50.942;4.028;2022-09-09T00:58:25;8.68;;;2.25;;
21036;SDS011;10677;50.942;4.028;2022-09-09T01:00:53;8.88;;;2.22;;
21036;SDS011;10677;50.942;4.028;2022-09-09T01:06:29;5.88;;;1.83;;
21036;SDS011;10677;50.942;4.028;2022-09-09T01:12:03;5.75;;;1.65;;
21036;SDS011;10677;50.942;4.028;2022-09-09T01:17:08;7.43;;;2.28;;
21036;SDS011;10677;50.942;4.028;2022-09-09T01:22:15;9.63;;;1.85;;
21036;SDS011;10677;50.942;4.028;2022-09-09T01:28:02;5.50;;;2.00;;
21036;SDS011;10677;50.942;4.028;2022-09-09T01:30:33;5.10;;;1.40;;
21036;SDS011;10677;50.942;4.028;2022-09-09T01:33:04;7.45;;;1.95;;
21036;SDS011;10677;50.942;4.028;2022-09-09T01:37:58;7.22;;;1.73;;
21036;SDS011;10677;50.942;4.028;2022-09-09T01:40:24;7.40;;;2.10;;
21036;SDS011;10677;50.942;4.028;2022-09-09T01:42:51;7.20;;;1.80;;
21036;SDS011;10677;50.942;4.028;2022-09-09T01:45:18;6.50;;;1.60;;
21036;SDS011;10677;50.942;4.028;2022-09-09T01:47:44;7.25;;;1.92;;
21036;SDS011;10677;50.942;4.028;2022-09-09T01:50:11;5.05;;;2.25;;
21036;SDS011;10677;50.942;4.028;2022-09-09T01:52:39;7.05;;;2.10;;
21036;SDS011;10677;50.942;4.028;2022-09-09T01:55:06;9.85;;;2.50;;
21036;SDS011;10677;50.942;4.028;2022-09-09T01:57:35;7.70;;;2.80;;
21036;SDS011;10677;50.942;4.028;2022-09-09T02:00:10;8.43;;;1.80;;
21036;SDS011;10677;50.942;4.028;2022-09-09T02:05:37;9.27;;;2.08;;
21036;SDS011;10677;50.942;4.028;2022-09-09T02:08:08;7.30;;;2.25;;
21036;SDS011;10677;50.942;4.028;2022-09-09T02:11:02;14.73;;;2.15;;
21036;SDS011;10677;50.942;4.028;2022-09-09T02:13:32;11.68;;;2.90;;
21036;SDS011;10677;50.942;4.028;2022-09-09T02:16:06;12.07;;;2.55;;
21036;SDS011;10677;50.942;4.028;2022-09-09T02:18:39;8.85;;;2.38;;
21036;SDS011;10677;50.942;4.028;2022-09-09T02:21:09;7.40;;;2.80;;
21036;SDS011;10677;50.942;4.028;2022-09-09T02:23:39;5.88;;;2.42;;
21036;SDS011;10677;50.942;4.028;2022-09-09T02:26:07;6.30;;;2.13;;
21036;SDS011;10677;50.942;4.028;2022-09-09T02:28:35;11.05;;;2.33;;
21036;SDS011;10677;50.942;4.028;2022-09-09T02:31:03;6.60;;;2.10;;
21036;SDS011;10677;50.942;4.028;2022-09-09T02:33:32;8.40;;;2.75;;
21036;SDS011;10677;50.942;4.028;2022-09-09T02:36:02;9.13;;;2.85;;
21036;SDS011;10677;50.942;4.028;2022-09-09T02:38:32;7.60;;;2.55;;
21036;SDS011;10677;50.942;4.028;2022-09-09T02:41:01;11.05;;;2.40;;
21036;SDS011;10677;50.942;4.028;2022-09-09T02:43:36;12.27;;;2.63;;
21036;SDS011;10677;50.942;4.028;2022-09-09T02:56:32;11.57;;;3.13;;
21036;SDS011;10677;50.942;4.028;2022-09-09T02:59:05;14.80;;;2.63;;
21036;SDS011;10677;50.942;4.028;2022-09-09T03:01:31;12.93;;;2.55;;
21036;SDS011;10677;50.942;4.028;2022-09-09T03:03:56;15.98;;;3.25;;
21036;SDS011;10677;50.942;4.028;2022-09-09T03:06:22;18.58;;;2.85;;
21036;SDS011;10677;50.942;4.028;2022-09-09T03:08:48;8.77;;;2.40;;
21036;SDS011;10677;50.942;4.028;2022-09-09T03:11:15;12.82;;;2.70;;
21036;SDS011;10677;50.942;4.028;2022-09-09T03:13:41;13.48;;;3.08;;
21036;SDS011;10677;50.942;4.028;2022-09-09T03:16:07;10.85;;;2.50;;
21036;SDS011;10677;50.942;4.028;2022-09-09T03:18:33;9.55;;;2.30;;
21036;SDS011;10677;50.942;4.028;2022-09-09T03:20:59;9.65;;;3.35;;
21036;SDS011;10677;50.942;4.028;2022-09-09T03:23:25;7.25;;;2.05;;
21036;SDS011;10677;50.942;4.028;2022-09-09T03:25:51;12.23;;;2.80;;
21036;SDS011;10677;50.942;4.028;2022-09-09T03:28:17;7.90;;;2.10;;
21036;SDS011;10677;50.942;4.028;2022-09-09T03:30:43;10.93;;;2.40;;
21036;SDS011;10677;50.942;4.028;2022-09-09T03:33:09;14.52;;;2.85;;
21036;SDS011;10677;50.942;4.028;2022-09-09T03:35:34;12.52;;;3.30;;
21036;SDS011;10677;50.942;4.028;2022-09-09T03:38:02;19.85;;;2.50;;
21036;SDS011;10677;50.942;4.028;2022-09-09T03:40:28;10.57;;;2.63;;
21036;SDS011;10677;50.942;4.028;2022-09-09T03:42:53;11.35;;;3.17;;
21036;SDS011;10677;50.942;4.028;2022-09-09T03:45:19;14.27;;;2.85;;
21036;SDS011;10677;50.942;4.028;2022-09-09T03:47:44;12.68;;;2.53;;
21036;SDS011;10677;50.942;4.028;2022-09-09T03:50:11;12.90;;;2.92;;
21036;SDS011;10677;50.942;4.028;2022-09-09T03:52:40;12.88;;;2.40;;
21036;SDS011;10677;50.942;4.028;2022-09-09T03:55:07;12.30;;;2.47;;
21036;SDS011;10677;50.942;4.028;2022-09-09T03:57:33;12.40;;;2.28;;
21036;SDS011;10677;50.942;4.028;2022-09-09T04:00:02;17.83;;;2.90;;
21036;SDS011;10677;50.942;4.028;2022-09-09T04:02:32;13.25;;;2.67;;
21036;SDS011;10677;50.942;4.028;2022-09-09T04:04:58;9.60;;;2.30;;
21036;SDS011;10677;50.942;4.028;2022-09-09T04:07:24;14.45;;;3.10;;
21036;SDS011;10677;50.942;4.028;2022-09-09T04:09:52;13.82;;;2.67;;
21036;SDS011;10677;50.942;4.028;2022-09-09T04:12:18;11.20;;;2.70;;
21036;SDS011;10677;50.942;4.028;2022-09-09T04:14:44;12.38;;;2.67;;
21036;SDS011;10677;50.942;4.028;2022-09-09T04:17:09;12.15;;;2.38;;
21036;SDS011;10677;50.942;4.028;2022-09-09T04:19:36;9.38;;;2.10;;
21036;SDS011;10677;50.942;4.028;2022-09-09T04:22:01;12.75;;;2.78;;
21036;SDS011;10677;50.942;4.028;2022-09-09T04:24:27;14.20;;;3.30;;
21036;SDS011;10677;50.942;4.028;2022-09-09T04:26:54;14.73;;;3.85;;
21036;SDS011;10677;50.942;4.028;2022-09-09T04:29:20;9.40;;;2.25;;
21036;SDS011;10677;50.942;4.028;2022-09-09T04:31:46;9.80;;;2.40;;
21036;SDS011;10677;50.942;4.028;2022-09-09T04:34:11;10.38;;;2.10;;
21036;SDS011;10677;50.942;4.028;2022-09-09T04:36:37;8.90;;;2.25;;
21036;SDS011;10677;50.942;4.028;2022-09-09T04:39:04;14.98;;;2.50;;
21036;SDS011;10677;50.942;4.028;2022-09-09T04:41:29;14.70;;;2.35;;
21036;SDS011;10677;50.942;4.028;2022-09-09T04:43:56;11.85;;;2.20;;
21036;SDS011;10677;50.942;4.028;2022-09-09T04:46:22;12.02;;;2.33;;
21036;SDS011;10677;50.942;4.028;2022-09-09T04:48:49;12.38;;;2.88;;
21036;SDS011;10677;50.942;4.028;2022-09-09T04:51:15;10.73;;;2.58;;
21036;SDS011;10677;50.942;4.028;2022-09-09T04:53:41;8.18;;;2.30;;
21036;SDS011;10677;50.942;4.028;2022-09-09T04:56:09;12.13;;;2.35;;
21036;SDS011;10677;50.942;4.028;2022-09-09T04:58:37;11.60;;;2.72;;
21036;SDS011;10677;50.942;4.028;2022-09-09T05:03:34;12.70;;;2.08;;
21036;SDS011;10677;50.942;4.028;2022-09-09T05:06:19;11.32;;;2.50;;
21036;SDS011;10677;50.942;4.028;2022-09-09T05:08:46;10.82;;;2.28;;
21036;SDS011;10677;50.942;4.028;2022-09-09T05:13:43;15.13;;;2.42;;
21036;SDS011;10677;50.942;4.028;2022-09-09T05:16:09;13.93;;;2.85;;
21036;SDS011;10677;50.942;4.028;2022-09-09T05:18:36;14.43;;;2.17;;
21036;SDS011;10677;50.942;4.028;2022-09-09T05:21:05;12.57;;;2.85;;
21036;SDS011;10677;50.942;4.028;2022-09-09T05:23:32;13.77;;;2.92;;
21036;SDS011;10677;50.942;4.028;2022-09-09T05:25:59;15.05;;;3.65;;
21036;SDS011;10677;50.942;4.028;2022-09-09T05:28:25;9.88;;;2.75;;
21036;SDS011;10677;50.942;4.028;2022-09-09T05:30:57;14.70;;;2.95;;
21036;SDS011;10677;50.942;4.028;2022-09-09T05:33:24;12.90;;;2.38;;
21036;SDS011;10677;50.942;4.028;2022-09-09T05:36:00;12.40;;;2.42;;
21036;SDS011;10677;50.942;4.028;2022-09-09T05:38:27;9.65;;;2.70;;
21036;SDS011;10677;50.942;4.028;2022-09-09T05:40:54;11.23;;;2.35;;
21036;SDS011;10677;50.942;4.028;2022-09-09T05:43:21;11.25;;;2.90;;
21036;SDS011;10677;50.942;4.028;2022-09-09T05:45:47;15.32;;;2.30;;
21036;SDS011;10677;50.942;4.028;2022-09-09T05:48:14;13.40;;;2.25;;
21036;SDS011;10677;50.942;4.028;2022-09-09T05:50:41;11.63;;;2.35;;
21036;SDS011;10677;50.942;4.028;2022-09-09T05:53:08;17.15;;;3.10;;
21036;SDS011;10677;50.942;4.028;2022-09-09T05:55:35;12.82;;;2.67;;
21036;SDS011;10677;50.942;4.028;2022-09-09T05:58:01;11.82;;;2.50;;
21036;SDS011;10677;50.942;4.028;2022-09-09T06:00:27;13.20;;;2.80;;
21036;SDS011;10677;50.942;4.028;2022-09-09T06:02:54;13.27;;;2.58;;
21036;SDS011;10677;50.942;4.028;2022-09-09T06:05:20;13.18;;;2.22;;
21036;SDS011;10677;50.942;4.028;2022-09-09T06:07:47;13.43;;;2.80;;
21036;SDS011;10677;50.942;4.028;2022-09-09T06:10:18;16.38;;;2.97;;
21036;SDS011;10677;50.942;4.028;2022-09-09T06:12:44;10.23;;;2.00;;
21036;SDS011;10677;50.942;4.028;2022-09-09T06:15:09;19.60;;;3.13;;
21036;SDS011;10677;50.942;4.028;2022-09-09T06:17:35;16.60;;;2.53;;
21036;SDS011;10677;50.942;4.028;2022-09-09T06:20:02;13.18;;;2.47;;
21036;SDS011;10677;50.942;4.028;2022-09-09T06:22:30;69.07;;;8.73;;
21036;SDS011;10677;50.942;4.028;2022-09-09T06:24:56;13.73;;;3.03;;
21036;SDS011;10677;50.942;4.028;2022-09-09T06:27:21;11.82;;;1.92;;
21036;SDS011;10677;50.942;4.028;2022-09-09T06:29:47;13.13;;;2.20;;
21036;SDS011;10677;50.942;4.028;2022-09-09T06:32:13;11.60;;;2.17;;
21036;SDS011;10677;50.942;4.028;2022-09-09T06:34:39;10.13;;;1.95;;
21036;SDS011;10677;50.942;4.028;2022-09-09T06:37:05;11.25;;;3.17;;
21036;SDS011;10677;50.942;4.028;2022-09-09T06:39:32;13.18;;;2.30;;
21036;SDS011;10677;50.942;4.028;2022-09-09T06:41:58;9.85;;;2.58;;
21036;SDS011;10677;50.942;4.028;2022-09-09T06:44:27;11.77;;;1.90;;
21036;SDS011;10677;50.942;4.028;2022-09-09T06:46:55;7.60;;;1.73;;
21036;SDS011;10677;50.942;4.028;2022-09-09T06:49:20;10.50;;;2.33;;
21036;SDS011;10677;50.942;4.028;2022-09-09T06:51:47;13.82;;;2.05;;
21036;SDS011;10677;50.942;4.028;2022-09-09T06:54:13;11.15;;;2.10;;
21036;SDS011;10677;50.942;4.028;2022-09-09T06:56:39;14.43;;;2.13;;
21036;SDS011;10677;50.942;4.028;2022-09-09T06:59:08;10.00;;;1.63;;
21036;SDS011;10677;50.942;4.028;2022-09-09T07:01:35;9.80;;;2.42;;
21036;SDS011;10677;50.942;4.028;2022-09-09T07:04:03;12.13;;;2.13;;
21036;SDS011;10677;50.942;4.028;2022-09-09T07:06:33;12.30;;;2.17;;
21036;SDS011;10677;50.942;4.028;2022-09-09T07:09:02;9.27;;;1.98;;
21036;SDS011;10677;50.942;4.028;2022-09-09T07:11:38;12.77;;;2.17;;
21036;SDS011;10677;50.942;4.028;2022-09-09T07:14:06;15.50;;;2.60;;
21036;SDS011;10677;50.942;4.028;2022-09-09T07:16:32;11.80;;;2.45;;
21036;SDS011;10677;50.942;4.028;2022-09-09T07:18:58;8.85;;;2.40;;
21036;SDS011;10677;50.942;4.028;2022-09-09T07:21:25;14.70;;;2.83;;
21036;SDS011;10677;50.942;4.028;2022-09-09T07:23:52;10.70;;;2.20;;
21036;SDS011;10677;50.942;4.028;2022-09-09T07:26:19;8.13;;;2.25;;
21036;SDS011;10677;50.942;4.028;2022-09-09T07:28:46;11.77;;;2.25;;
21036;SDS011;10677;50.942;4.028;2022-09-09T07:31:14;9.25;;;2.20;;
21036;SDS011;10677;50.942;4.028;2022-09-09T07:33:45;14.35;;;2.35;;
21036;SDS011;10677;50.942;4.028;2022-09-09T07:36:22;12.60;;;2.15;;
21036;SDS011;10677;50.942;4.028;2022-09-09T07:38:51;7.72;;;2.20;;
21036;SDS011;10677;50.942;4.028;2022-09-09T07:41:20;8.23;;;1.83;;
21036;SDS011;10677;50.942;4.028;2022-09-09T07:43:48;10.13;;;2.28;;
21036;SDS011;10677;50.942;4.028;2022-09-09T07:46:15;14.25;;;2.47;;
21036;SDS011;10677;50.942;4.028;2022-09-09T07:48:50;12.55;;;2.42;;
21036;SDS011;10677;50.942;4.028;2022-09-09T07:51:27;10.05;;;2.50;;
21036;SDS011;10677;50.942;4.028;2022-09-09T07:53:56;12.20;;;2.10;;
21036;SDS011;10677;50.942;4.028;2022-09-09T07:56:24;9.45;;;1.63;;
21036;SDS011;10677;50.942;4.028;2022-09-09T07:58:51;10.82;;;2.20;;
21036;SDS011;10677;50.942;4.028;2022-09-09T08:01:25;12.27;;;2.22;;
21036;SDS011;10677;50.942;4.028;2022-09-09T08:03:54;9.25;;;1.95;;
21036;SDS011;10677;50.942;4.028;2022-09-09T08:06:21;14.85;;;2.65;;
21036;SDS011;10677;50.942;4.028;2022-09-09T08:08:49;10.30;;;1.98;;
21036;SDS011;10677;50.942;4.028;2022-09-09T08:11:16;9.65;;;1.85;;
21036;SDS011;10677;50.942;4.028;2022-09-09T08:13:42;8.07;;;2.25;;
21036;SDS011;10677;50.942;4.028;2022-09-09T08:16:10;9.93;;;2.15;;
21036;SDS011;10677;50.942;4.028;2022-09-09T08:18:38;12.93;;;1.80;;
21036;SDS011;10677;50.942;4.028;2022-09-09T08:21:05;7.05;;;1.77;;
21036;SDS011;10677;50.942;4.028;2022-09-09T08:23:41;12.30;;;2.00;;
21036;SDS011;10677;50.942;4.028;2022-09-09T08:29:07;9.68;;;1.70;;
21036;SDS011;10677;50.942;4.028;2022-09-09T08:31:36;11.88;;;1.42;;
21036;SDS011;10677;50.942;4.028;2022-09-09T08:34:04;10.07;;;2.00;;
21036;SDS011;10677;50.942;4.028;2022-09-09T08:36:31;7.50;;;1.65;;
21036;SDS011;10677;50.942;4.028;2022-09-09T08:39:02;8.68;;;2.00;;
21036;SDS011;10677;50.942;4.028;2022-09-09T08:49:37;7.43;;;2.10;;
21036;SDS011;10677;50.942;4.028;2022-09-09T08:52:16;12.75;;;2.30;;
21036;SDS011;10677;50.942;4.028;2022-09-09T08:54:52;10.15;;;1.88;;
21036;SDS011;10677;50.942;4.028;2022-09-09T08:57:23;8.80;;;2.30;;
21036;SDS011;10677;50.942;4.028;2022-09-09T08:59:52;14.60;;;2.63;;
21036;SDS011;10677;50.942;4.028;2022-09-09T09:02:42;8.93;;;1.83;;
21036;SDS011;10677;50.942;4.028;2022-09-09T09:08:12;9.02;;;1.92;;
21036;SDS011;10677;50.942;4.028;2022-09-09T09:10:49;7.63;;;2.08;;
21036;SDS011;10677;50.942;4.028;2022-09-09T09:13:18;8.93;;;1.73;;
21036;SDS011;10677;50.942;4.028;2022-09-09T09:15:55;9.25;;;2.08;;
21036;SDS011;10677;50.942;4.028;2022-09-09T09:18:26;11.52;;;2.17;;
21036;SDS011;10677;50.942;4.028;2022-09-09T09:23:46;7.30;;;2.10;;
21036;SDS011;10677;50.942;4.028;2022-09-09T09:26:34;9.77;;;2.00;;
21036;SDS011;10677;50.942;4.028;2022-09-09T09:29:07;25.40;;;3.20;;
21036;SDS011;10677;50.942;4.028;2022-09-09T09:31:54;10.98;;;2.30;;
21036;SDS011;10677;50.942;4.028;2022-09-09T09:34:22;9.73;;;1.88;;
21036;SDS011;10677;50.942;4.028;2022-09-09T09:36:53;12.20;;;2.30;;
21036;SDS011;10677;50.942;4.028;2022-09-09T09:39:30;11.75;;;2.53;;
21036;SDS011;10677;50.942;4.028;2022-09-09T09:42:14;8.75;;;2.00;;
21036;SDS011;10677;50.942;4.028;2022-09-09T09:44:42;39.28;;;4.75;;
21036;SDS011;10677;50.942;4.028;2022-09-09T09:47:12;13.80;;;2.17;;
21036;SDS011;10677;50.942;4.028;2022-09-09T09:49:52;54.85;;;6.97;;
21036;SDS011;10677;50.942;4.028;2022-09-09T09:52:22;10.98;;;2.45;;
21036;SDS011;10677;50.942;4.028;2022-09-09T09:54:50;11.55;;;1.63;;
21036;SDS011;10677;50.942;4.028;2022-09-09T09:57:23;13.52;;;2.47;;
21036;SDS011;10677;50.942;4.028;2022-09-09T10:00:12;22.52;;;3.38;;
21036;SDS011;10677;50.942;4.028;2022-09-09T10:02:46;7.88;;;1.60;;
21036;SDS011;10677;50.942;4.028;2022-09-09T10:07:40;6.57;;;1.55;;
21036;SDS011;10677;50.942;4.028;2022-09-09T10:10:09;6.05;;;1.70;;
21036;SDS011;10677;50.942;4.028;2022-09-09T10:32:25;7.18;;;1.60;;
21036;SDS011;10677;50.942;4.028;2022-09-09T10:38:14;4.38;;;1.42;;
21036;SDS011;10677;50.942;4.028;2022-09-09T11:00:04;5.03;;;0.93;;
21036;SDS011;10677;50.942;4.028;2022-09-09T11:02:58;4.65;;;1.17;;
21036;SDS011;10677;50.942;4.028;2022-09-09T11:05:28;4.97;;;1.13;;
21036;SDS011;10677;50.942;4.028;2022-09-09T11:08:03;5.95;;;0.93;;
21036;SDS011;10677;50.942;4.028;2022-09-09T11:15:57;4.80;;;1.25;;
21036;SDS011;10677;50.942;4.028;2022-09-09T11:18:43;4.05;;;1.00;;
21036;SDS011;10677;50.942;4.028;2022-09-09T11:21:46;4.68;;;1.25;;
21036;SDS011;10677;50.942;4.028;2022-09-09T11:24:11;4.15;;;1.13;;
21036;SDS011;10677;50.942;4.028;2022-09-09T11:26:44;4.85;;;1.10;;
21036;SDS011;10677;50.942;4.028;2022-09-09T11:29:33;5.00;;;0.90;;
21036;SDS011;10677;50.942;4.028;2022-09-09T11:40:31;5.80;;;1.13;;
21036;SDS011;10677;50.942;4.028;2022-09-09T11:43:05;4.63;;;1.13;;
21036;SDS011;10677;50.942;4.028;2022-09-09T11:45:43;5.00;;;1.20;;
21036;SDS011;10677;50.942;4.028;2022-09-09T11:48:32;4.90;;;1.00;;
21036;SDS011;10677;50.942;4.028;2022-09-09T11:51:11;5.32;;;1.20;;
21036;SDS011;10677;50.942;4.028;2022-09-09T11:53:51;5.22;;;1.08;;
21036;SDS011;10677;50.942;4.028;2022-09-09T11:56:51;4.57;;;1.23;;
21036;SDS011;10677;50.942;4.028;2022-09-09T11:59:24;4.65;;;1.30;;
21036;SDS011;10677;50.942;4.028;2022-09-09T12:01:56;4.35;;;1.02;;
21036;SDS011;10677;50.942;4.028;2022-09-09T12:04:46;3.67;;;1.15;;
21036;SDS011;10677;50.942;4.028;2022-09-09T12:07:40;2.35;;;0.95;;
21036;SDS011;10677;50.942;4.028;2022-09-09T12:12:49;6.15;;;1.50;;
21036;SDS011;10677;50.942;4.028;2022-09-09T12:17:53;9.43;;;1.50;;
21036;SDS011;10677;50.942;4.028;2022-09-09T12:28:11;7.43;;;1.17;;
21036;SDS011;10677;50.942;4.028;2022-09-09T12:33:34;5.22;;;1.05;;
21036;SDS011;10677;50.942;4.028;2022-09-09T12:36:01;4.45;;;1.10;;
21036;SDS011;10677;50.942;4.028;2022-09-09T12:38:47;4.00;;;1.02;;
21036;SDS011;10677;50.942;4.028;2022-09-09T12:41:18;5.70;;;1.58;;
21036;SDS011;10677;50.942;4.028;2022-09-09T12:43:45;3.45;;;1.20;;
21036;SDS011;10677;50.942;4.028;2022-09-09T12:46:13;3.08;;;0.90;;
21036;SDS011;10677;50.942;4.028;2022-09-09T12:48:48;4.72;;;1.20;;
21036;SDS011;10677;50.942;4.028;2022-09-09T12:51:32;4.32;;;1.45;;
21036;SDS011;10677;50.942;4.028;2022-09-09T12:53:59;6.25;;;1.20;;
21036;SDS011;10677;50.942;4.028;2022-09-09T12:56:28;6.00;;;1.10;;
21036;SDS011;10677;50.942;4.028;2022-09-09T12:58:57;5.55;;;1.00;;
21036;SDS011;10677;50.942;4.028;2022-09-09T13:01:25;4.80;;;1.05;;
21036;SDS011;10677;50.942;4.028;2022-09-09T13:03:53;6.20;;;1.30;;
21036;SDS011;10677;50.942;4.028;2022-09-09T13:06:20;3.28;;;0.90;;
21036;SDS011;10677;50.942;4.028;2022-09-09T13:08:51;5.47;;;1.10;;
21036;SDS011;10677;50.942;4.028;2022-09-09T13:14:32;2.45;;;0.90;;
21036;SDS011;10677;50.942;4.028;2022-09-09T13:17:03;4.00;;;0.95;;
21036;SDS011;10677;50.942;4.028;2022-09-09T13:19:37;4.50;;;1.00;;
21036;SDS011;10677;50.942;4.028;2022-09-09T13:25:00;3.47;;;0.93;;
21036;SDS011;10677;50.942;4.028;2022-09-09T13:27:32;5.03;;;0.90;;
21036;SDS011;10677;50.942;4.028;2022-09-09T13:30:19;3.55;;;0.90;;
21036;SDS011;10677;50.942;4.028;2022-09-09T13:35:54;4.80;;;0.98;;
21036;SDS011;10677;50.942;4.028;2022-09-09T13:38:20;2.97;;;1.20;;
21036;SDS011;10677;50.942;4.028;2022-09-09T13:40:56;5.13;;;0.85;;
21036;SDS011;10677;50.942;4.028;2022-09-09T13:43:34;5.28;;;1.08;;
21036;SDS011;10677;50.942;4.028;2022-09-09T13:46:05;7.38;;;1.10;;
21036;SDS011;10677;50.942;4.028;2022-09-09T13:48:58;2.45;;;0.80;;
21036;SDS011;10677;50.942;4.028;2022-09-09T13:51:30;3.83;;;0.65;;
21036;SDS011;10677;50.942;4.028;2022-09-09T13:54:00;4.57;;;0.90;;
21036;SDS011;10677;50.942;4.028;2022-09-09T13:56:26;5.53;;;1.27;;
21036;SDS011;10677;50.942;4.028;2022-09-09T13:58:52;2.90;;;1.10;;
21036;SDS011;10677;50.942;4.028;2022-09-09T14:01:18;3.13;;;0.80;;
21036;SDS011;10677;50.942;4.028;2022-09-09T14:03:43;4.40;;;1.20;;
21036;SDS011;10677;50.942;4.028;2022-09-09T14:06:09;2.78;;;0.70;;
21036;SDS011;10677;50.942;4.028;2022-09-09T14:08:36;2.50;;;0.85;;
21036;SDS011;10677;50.942;4.028;2022-09-09T14:11:02;4.15;;;0.82;;
21036;SDS011;10677;50.942;4.028;2022-09-09T14:16:33;2.15;;;0.55;;
21036;SDS011;10677;50.942;4.028;2022-09-09T14:18:59;3.60;;;1.05;;
21036;SDS011;10677;50.942;4.028;2022-09-09T14:21:25;4.25;;;0.93;;
21036;SDS011;10677;50.942;4.028;2022-09-09T14:23:52;3.92;;;1.00;;
21036;SDS011;10677;50.942;4.028;2022-09-09T14:26:18;4.05;;;0.93;;
21036;SDS011;10677;50.942;4.028;2022-09-09T14:28:46;4.40;;;1.00;;
21036;SDS011;10677;50.942;4.028;2022-09-09T14:31:12;3.80;;;0.80;;
21036;SDS011;10677;50.942;4.028;2022-09-09T14:33:38;3.47;;;0.88;;
21036;SDS011;10677;50.942;4.028;2022-09-09T14:36:05;4.60;;;0.90;;
21036;SDS011;10677;50.942;4.028;2022-09-09T14:38:32;5.97;;;1.00;;
21036;SDS011;10677;50.942;4.028;2022-09-09T14:41:00;4.20;;;1.00;;
21036;SDS011;10677;50.942;4.028;2022-09-09T14:43:30;4.90;;;1.20;;
21036;SDS011;10677;50.942;4.028;2022-09-09T14:46:04;3.83;;;1.08;;
21036;SDS011;10677;50.942;4.028;2022-09-09T14:48:33;6.70;;;1.00;;
21036;SDS011;10677;50.942;4.028;2022-09-09T14:51:17;2.58;;;0.70;;
21036;SDS011;10677;50.942;4.028;2022-09-09T14:53:45;7.22;;;1.63;;
21036;SDS011;10677;50.942;4.028;2022-09-09T14:56:12;6.03;;;1.08;;
21036;SDS011;10677;50.942;4.028;2022-09-09T14:58:40;3.40;;;0.98;;
21036;SDS011;10677;50.942;4.028;2022-09-09T15:01:09;6.20;;;1.10;;
21036;SDS011;10677;50.942;4.028;2022-09-09T15:03:37;4.78;;;1.38;;
21036;SDS011;10677;50.942;4.028;2022-09-09T15:08:40;3.25;;;0.90;;
21036;SDS011;10677;50.942;4.028;2022-09-09T15:11:07;5.25;;;1.08;;
21036;SDS011;10677;50.942;4.028;2022-09-09T15:13:36;5.85;;;1.10;;
21036;SDS011;10677;50.942;4.028;2022-09-09T15:16:03;5.22;;;1.20;;
21036;SDS011;10677;50.942;4.028;2022-09-09T15:21:52;4.85;;;1.20;;
21036;SDS011;10677;50.942;4.028;2022-09-09T15:24:19;5.25;;;1.20;;
21036;SDS011;10677;50.942;4.028;2022-09-09T15:26:46;5.78;;;1.30;;
21036;SDS011;10677;50.942;4.028;2022-09-09T15:29:11;7.00;;;1.17;;
21036;SDS011;10677;50.942;4.028;2022-09-09T15:31:37;12.57;;;2.55;;
21036;SDS011;10677;50.942;4.028;2022-09-09T15:34:04;6.50;;;2.53;;
21036;SDS011;10677;50.942;4.028;2022-09-09T15:36:34;5.45;;;1.73;;
21036;SDS011;10677;50.942;4.028;2022-09-09T15:39:02;8.35;;;2.20;;
21036;SDS011;10677;50.942;4.028;2022-09-09T15:41:30;4.80;;;1.63;;
21036;SDS011;10677;50.942;4.028;2022-09-09T15:43:58;5.78;;;2.03;;
21036;SDS011;10677;50.942;4.028;2022-09-09T15:46:34;5.28;;;2.20;;
21036;SDS011;10677;50.942;4.028;2022-09-09T15:51:36;6.20;;;1.80;;
21036;SDS011;10677;50.942;4.028;2022-09-09T15:54:13;7.10;;;1.55;;
21036;SDS011;10677;50.942;4.028;2022-09-09T15:56:45;7.95;;;1.98;;
21036;SDS011;10677;50.942;4.028;2022-09-09T15:59:13;6.45;;;1.90;;
21036;SDS011;10677;50.942;4.028;2022-09-09T16:01:39;5.85;;;1.90;;
21036;SDS011;10677;50.942;4.028;2022-09-09T16:04:08;6.60;;;1.83;;
21036;SDS011;10677;50.942;4.028;2022-09-09T16:06:33;7.97;;;2.58;;
21036;SDS011;10677;50.942;4.028;2022-09-09T16:09:00;8.65;;;2.10;;
21036;SDS011;10677;50.942;4.028;2022-09-09T16:11:31;8.77;;;2.08;;
21036;SDS011;10677;50.942;4.028;2022-09-09T16:14:02;6.85;;;2.08;;
21036;SDS011;10677;50.942;4.028;2022-09-09T16:16:28;3.47;;;1.00;;
21036;SDS011;10677;50.942;4.028;2022-09-09T16:18:55;3.28;;;0.93;;
21036;SDS011;10677;50.942;4.028;2022-09-09T16:21:27;4.18;;;1.50;;
21036;SDS011;10677;50.942;4.028;2022-09-09T16:23:56;3.83;;;0.93;;
21036;SDS011;10677;50.942;4.028;2022-09-09T16:26:29;2.22;;;0.80;;
21036;SDS011;10677;50.942;4.028;2022-09-09T16:28:57;3.70;;;1.00;;
21036;SDS011;10677;50.942;4.028;2022-09-09T16:31:24;3.58;;;1.02;;
21036;SDS011;10677;50.942;4.028;2022-09-09T16:33:52;3.75;;;0.98;;
21036;SDS011;10677;50.942;4.028;2022-09-09T16:36:25;4.63;;;1.20;;
21036;SDS011;10677;50.942;4.028;2022-09-09T16:38:59;3.33;;;1.13;;
21036;SDS011;10677;50.942;4.028;2022-09-09T16:41:27;4.93;;;0.90;;
21036;SDS011;10677;50.942;4.028;2022-09-09T16:43:55;3.70;;;1.00;;
21036;SDS011;10677;50.942;4.028;2022-09-09T16:46:22;3.17;;;1.00;;
21036;SDS011;10677;50.942;4.028;2022-09-09T16:48:48;4.47;;;1.30;;
21036;SDS011;10677;50.942;4.028;2022-09-09T16:51:22;4.07;;;1.05;;
21036;SDS011;10677;50.942;4.028;2022-09-09T16:53:50;5.65;;;1.10;;
21036;SDS011;10677;50.942;4.028;2022-09-09T16:56:19;4.10;;;1.08;;
21036;SDS011;10677;50.942;4.028;2022-09-09T16:58:50;4.50;;;1.17;;
21036;SDS011;10677;50.942;4.028;2022-09-09T17:01:16;3.55;;;1.10;;
21036;SDS011;10677;50.942;4.028;2022-09-09T17:03:42;2.80;;;0.88;;
21036;SDS011;10677;50.942;4.028;2022-09-09T17:06:08;4.85;;;1.05;;
21036;SDS011;10677;50.942;4.028;2022-09-09T17:08:39;3.10;;;1.10;;
21036;SDS011;10677;50.942;4.028;2022-09-09T17:11:14;3.60;;;0.93;;
21036;SDS011;10677;50.942;4.028;2022-09-09T17:13:42;4.32;;;1.02;;
21036;SDS011;10677;50.942;4.028;2022-09-09T17:16:08;2.60;;;0.98;;
21036;SDS011;10677;50.942;4.028;2022-09-09T17:18:35;4.78;;;1.45;;
21036;SDS011;10677;50.942;4.028;2022-09-09T17:21:08;5.53;;;1.20;;
21036;SDS011;10677;50.942;4.028;2022-09-09T17:23:37;3.53;;;0.85;;
21036;SDS011;10677;50.942;4.028;2022-09-09T17:26:04;3.08;;;0.65;;
21036;SDS011;10677;50.942;4.028;2022-09-09T17:28:32;2.78;;;0.85;;
21036;SDS011;10677;50.942;4.028;2022-09-09T17:31:05;4.70;;;1.00;;
21036;SDS011;10677;50.942;4.028;2022-09-09T17:33:35;4.63;;;1.52;;
21036;SDS011;10677;50.942;4.028;2022-09-09T17:36:08;6.80;;;1.23;;
21036;SDS011;10677;50.942;4.028;2022-09-09T17:38:37;2.55;;;0.90;;
21036;SDS011;10677;50.942;4.028;2022-09-09T17:41:04;7.70;;;1.50;;
21036;SDS011;10677;50.942;4.028;2022-09-09T17:43:50;3.50;;;0.70;;
21036;SDS011;10677;50.942;4.028;2022-09-09T17:46:27;4.60;;;1.10;;
21036;SDS011;10677;50.942;4.028;2022-09-09T17:48:55;4.85;;;0.90;;
21036;SDS011;10677;50.942;4.028;2022-09-09T17:51:24;4.15;;;0.85;;
21036;SDS011;10677;50.942;4.028;2022-09-09T17:53:53;6.03;;;1.30;;